sensor_id;sensor_type;location;lat;lon;timestamp;P1;durP1;ratioP1;P2;durP2;ratioP2
12314;SDS011;23886;46.614;14.276;2023-01-23T00:01:26;20.43;;;18.23;;
12314;SDS011;23886;46.614;14.276;2023-01-23T00:03:55;21.83;;;19.53;;
12314;SDS011;23886;46.614;14.276;2023-01-23T00:06:23;20.50;;;18.30;;
12314;SDS011;23886;46.614;14.276;2023-01-23T00:08:51;23.47;;;20.60;;
12314;SDS011;23886;46.614;14.276;2023-01-23T00:11:18;22.77;;;20.37;;
12314;SDS011;23886;46.614;14.276;2023-01-23T00:13:46;23.97;;;21.33;;
12314;SDS011;23886;46.614;14.276;2023-01-23T00:16:14;24.20;;;21.60;;
12314;SDS011;23886;46.614;14.276;2023-01-23T00:18:44;22.80;;;20.40;;
12314;SDS011;23886;46.614;14.276;2023-01-23T00:21:13;23.00;;;20.70;;
12314;SDS011;23886;46.614;14.276;2023-01-23T00:23:42;23.03;;;20.57;;
12314;SDS011;23886;46.614;14.276;2023-01-23T00:26:11;24.60;;;21.93;;
12314;SDS011;23886;46.614;14.276;2023-01-23T00:28:39;25.30;;;22.60;;
12314;SDS011;23886;46.614;14.276;2023-01-23T00:31:07;24.00;;;21.47;;
12314;SDS011;23886;46.614;14.276;2023-01-23T00:33:36;23.67;;;21.17;;
12314;SDS011;23886;46.614;14.276;2023-01-23T00:36:05;24.33;;;21.83;;
12314;SDS011;23886;46.614;14.276;2023-01-23T00:38:33;24.07;;;21.53;;
12314;SDS011;23886;46.614;14.276;2023-01-23T00:41:00;25.67;;;22.97;;
12314;SDS011;23886;46.614;14.276;2023-01-23T00:43:27;24.03;;;21.43;;
12314;SDS011;23886;46.614;14.276;2023-01-23T00:45:55;24.00;;;21.53;;
12314;SDS011;23886;46.614;14.276;2023-01-23T00:48:22;23.67;;;21.23;;
12314;SDS011;23886;46.614;14.276;2023-01-23T00:50:49;22.00;;;19.70;;
12314;SDS011;23886;46.614;14.276;2023-01-23T00:53:18;22.50;;;19.50;;
12314;SDS011;23886;46.614;14.276;2023-01-23T00:55:45;20.73;;;18.60;;
12314;SDS011;23886;46.614;14.276;2023-01-23T00:58:12;20.57;;;18.37;;
12314;SDS011;23886;46.614;14.276;2023-01-23T01:00:39;20.10;;;18.00;;
12314;SDS011;23886;46.614;14.276;2023-01-23T01:03:06;19.67;;;17.67;;
12314;SDS011;23886;46.614;14.276;2023-01-23T01:05:33;21.33;;;19.10;;
12314;SDS011;23886;46.614;14.276;2023-01-23T01:08:01;22.47;;;20.17;;
12314;SDS011;23886;46.614;14.276;2023-01-23T01:10:30;22.33;;;19.87;;
12314;SDS011;23886;46.614;14.276;2023-01-23T01:12:58;20.50;;;18.30;;
12314;SDS011;23886;46.614;14.276;2023-01-23T01:15:27;20.60;;;18.40;;
12314;SDS011;23886;46.614;14.276;2023-01-23T01:17:54;20.30;;;18.17;;
12314;SDS011;23886;46.614;14.276;2023-01-23T01:20:22;22.30;;;19.80;;
12314;SDS011;23886;46.614;14.276;2023-01-23T01:22:50;20.60;;;18.50;;
12314;SDS011;23886;46.614;14.276;2023-01-23T01:25:17;22.27;;;19.87;;
12314;SDS011;23886;46.614;14.276;2023-01-23T01:27:46;18.90;;;16.90;;
12314;SDS011;23886;46.614;14.276;2023-01-23T01:32:41;19.53;;;17.43;;
12314;SDS011;23886;46.614;14.276;2023-01-23T01:35:09;19.10;;;17.00;;
12314;SDS011;23886;46.614;14.276;2023-01-23T01:37:37;20.57;;;18.30;;
12314;SDS011;23886;46.614;14.276;2023-01-23T01:40:06;21.50;;;19.23;;
12314;SDS011;23886;46.614;14.276;2023-01-23T01:42:37;20.83;;;18.63;;
12314;SDS011;23886;46.614;14.276;2023-01-23T01:48:07;22.20;;;19.90;;
12314;SDS011;23886;46.614;14.276;2023-01-23T01:50:34;23.30;;;20.80;;
12314;SDS011;23886;46.614;14.276;2023-01-23T01:53:01;22.33;;;20.03;;
12314;SDS011;23886;46.614;14.276;2023-01-23T01:55:28;21.40;;;18.73;;
12314;SDS011;23886;46.614;14.276;2023-01-23T01:57:55;21.00;;;18.90;;
12314;SDS011;23886;46.614;14.276;2023-01-23T02:00:23;23.03;;;19.77;;
12314;SDS011;23886;46.614;14.276;2023-01-23T02:02:50;22.97;;;20.40;;
12314;SDS011;23886;46.614;14.276;2023-01-23T02:05:21;22.30;;;20.00;;
12314;SDS011;23886;46.614;14.276;2023-01-23T02:07:51;22.13;;;19.80;;
12314;SDS011;23886;46.614;14.276;2023-01-23T02:10:22;22.33;;;19.70;;
12314;SDS011;23886;46.614;14.276;2023-01-23T02:12:50;23.83;;;21.33;;
12314;SDS011;23886;46.614;14.276;2023-01-23T02:15:18;23.93;;;21.37;;
12314;SDS011;23886;46.614;14.276;2023-01-23T02:17:47;23.37;;;20.80;;
12314;SDS011;23886;46.614;14.276;2023-01-23T02:20:18;22.40;;;20.10;;
12314;SDS011;23886;46.614;14.276;2023-01-23T02:22:50;23.37;;;20.87;;
12314;SDS011;23886;46.614;14.276;2023-01-23T02:25:29;24.20;;;21.20;;
12314;SDS011;23886;46.614;14.276;2023-01-23T02:28:05;23.53;;;21.13;;
12314;SDS011;23886;46.614;14.276;2023-01-23T02:30:34;21.47;;;19.17;;
12314;SDS011;23886;46.614;14.276;2023-01-23T02:33:07;24.93;;;22.03;;
12314;SDS011;23886;46.614;14.276;2023-01-23T02:35:35;22.87;;;20.47;;
12314;SDS011;23886;46.614;14.276;2023-01-23T02:38:03;23.10;;;20.17;;
12314;SDS011;23886;46.614;14.276;2023-01-23T02:40:31;23.83;;;21.07;;
12314;SDS011;23886;46.614;14.276;2023-01-23T02:43:00;23.57;;;21.03;;
12314;SDS011;23886;46.614;14.276;2023-01-23T02:45:31;22.37;;;20.07;;
12314;SDS011;23886;46.614;14.276;2023-01-23T02:47:58;22.53;;;20.27;;
12314;SDS011;23886;46.614;14.276;2023-01-23T02:50:25;23.10;;;20.50;;
12314;SDS011;23886;46.614;14.276;2023-01-23T02:52:52;24.77;;;22.07;;
12314;SDS011;23886;46.614;14.276;2023-01-23T02:55:22;24.57;;;21.93;;
12314;SDS011;23886;46.614;14.276;2023-01-23T02:57:50;24.17;;;21.57;;
12314;SDS011;23886;46.614;14.276;2023-01-23T03:00:17;24.63;;;22.07;;
12314;SDS011;23886;46.614;14.276;2023-01-23T03:02:46;25.27;;;22.57;;
12314;SDS011;23886;46.614;14.276;2023-01-23T03:05:14;24.93;;;22.33;;
12314;SDS011;23886;46.614;14.276;2023-01-23T03:07:41;23.00;;;20.53;;
12314;SDS011;23886;46.614;14.276;2023-01-23T03:10:09;23.00;;;20.70;;
12314;SDS011;23886;46.614;14.276;2023-01-23T03:12:37;21.53;;;19.20;;
12314;SDS011;23886;46.614;14.276;2023-01-23T03:15:07;23.23;;;20.73;;
12314;SDS011;23886;46.614;14.276;2023-01-23T03:17:35;23.60;;;21.10;;
12314;SDS011;23886;46.614;14.276;2023-01-23T03:20:04;23.13;;;20.73;;
12314;SDS011;23886;46.614;14.276;2023-01-23T03:22:31;22.60;;;20.20;;
12314;SDS011;23886;46.614;14.276;2023-01-23T03:24:58;24.57;;;21.50;;
12314;SDS011;23886;46.614;14.276;2023-01-23T03:27:25;22.80;;;20.33;;
12314;SDS011;23886;46.614;14.276;2023-01-23T03:29:52;24.00;;;21.50;;
12314;SDS011;23886;46.614;14.276;2023-01-23T03:32:36;22.93;;;20.47;;
12314;SDS011;23886;46.614;14.276;2023-01-23T03:35:06;22.77;;;20.47;;
12314;SDS011;23886;46.614;14.276;2023-01-23T03:37:38;24.63;;;21.93;;
12314;SDS011;23886;46.614;14.276;2023-01-23T03:40:05;24.90;;;22.30;;
12314;SDS011;23886;46.614;14.276;2023-01-23T03:42:52;25.37;;;22.67;;
12314;SDS011;23886;46.614;14.276;2023-01-23T03:45:19;24.97;;;22.00;;
12314;SDS011;23886;46.614;14.276;2023-01-23T03:47:46;24.23;;;21.63;;
12314;SDS011;23886;46.614;14.276;2023-01-23T03:50:15;24.63;;;22.03;;
12314;SDS011;23886;46.614;14.276;2023-01-23T03:52:42;24.13;;;21.63;;
12314;SDS011;23886;46.614;14.276;2023-01-23T03:55:09;25.87;;;23.13;;
12314;SDS011;23886;46.614;14.276;2023-01-23T03:57:36;25.57;;;22.77;;
12314;SDS011;23886;46.614;14.276;2023-01-23T04:00:03;25.50;;;22.90;;
12314;SDS011;23886;46.614;14.276;2023-01-23T04:02:31;24.33;;;21.80;;
12314;SDS011;23886;46.614;14.276;2023-01-23T04:04:58;24.87;;;22.30;;
12314;SDS011;23886;46.614;14.276;2023-01-23T04:07:26;24.87;;;22.17;;
12314;SDS011;23886;46.614;14.276;2023-01-23T04:09:53;23.43;;;20.93;;
12314;SDS011;23886;46.614;14.276;2023-01-23T04:12:20;24.33;;;21.77;;
12314;SDS011;23886;46.614;14.276;2023-01-23T04:14:47;23.13;;;20.63;;
12314;SDS011;23886;46.614;14.276;2023-01-23T04:17:14;23.23;;;20.83;;
12314;SDS011;23886;46.614;14.276;2023-01-23T04:19:41;26.50;;;23.67;;
12314;SDS011;23886;46.614;14.276;2023-01-23T04:22:08;24.60;;;21.93;;
12314;SDS011;23886;46.614;14.276;2023-01-23T04:24:36;24.17;;;21.67;;
12314;SDS011;23886;46.614;14.276;2023-01-23T04:27:03;25.67;;;22.97;;
12314;SDS011;23886;46.614;14.276;2023-01-23T04:29:30;25.53;;;22.93;;
12314;SDS011;23886;46.614;14.276;2023-01-23T04:31:58;24.70;;;22.10;;
12314;SDS011;23886;46.614;14.276;2023-01-23T04:34:25;27.27;;;24.33;;
12314;SDS011;23886;46.614;14.276;2023-01-23T04:36:52;26.73;;;23.60;;
12314;SDS011;23886;46.614;14.276;2023-01-23T04:39:19;27.53;;;24.93;;
12314;SDS011;23886;46.614;14.276;2023-01-23T04:41:47;26.93;;;24.17;;
12314;SDS011;23886;46.614;14.276;2023-01-23T04:44:14;24.00;;;21.50;;
12314;SDS011;23886;46.614;14.276;2023-01-23T04:46:47;25.20;;;22.57;;
12314;SDS011;23886;46.614;14.276;2023-01-23T04:49:17;25.47;;;22.87;;
12314;SDS011;23886;46.614;14.276;2023-01-23T04:51:44;24.40;;;21.83;;
12314;SDS011;23886;46.614;14.276;2023-01-23T04:54:12;24.47;;;21.83;;
12314;SDS011;23886;46.614;14.276;2023-01-23T04:56:39;25.10;;;22.50;;
12314;SDS011;23886;46.614;14.276;2023-01-23T04:59:08;24.37;;;20.80;;
12314;SDS011;23886;46.614;14.276;2023-01-23T05:01:35;23.23;;;20.50;;
12314;SDS011;23886;46.614;14.276;2023-01-23T05:04:02;22.63;;;20.43;;
12314;SDS011;23886;46.614;14.276;2023-01-23T05:06:30;23.83;;;21.40;;
12314;SDS011;23886;46.614;14.276;2023-01-23T05:08:57;22.30;;;19.97;;
12314;SDS011;23886;46.614;14.276;2023-01-23T05:11:24;22.93;;;20.63;;
12314;SDS011;23886;46.614;14.276;2023-01-23T05:13:51;21.37;;;19.27;;
12314;SDS011;23886;46.614;14.276;2023-01-23T05:16:20;23.40;;;20.27;;
12314;SDS011;23886;46.614;14.276;2023-01-23T05:18:47;24.87;;;22.27;;
12314;SDS011;23886;46.614;14.276;2023-01-23T05:21:13;23.23;;;20.63;;
12314;SDS011;23886;46.614;14.276;2023-01-23T05:23:40;21.97;;;19.70;;
12314;SDS011;23886;46.614;14.276;2023-01-23T05:26:07;21.03;;;18.83;;
12314;SDS011;23886;46.614;14.276;2023-01-23T05:28:34;20.50;;;18.40;;
12314;SDS011;23886;46.614;14.276;2023-01-23T05:31:01;20.23;;;18.00;;
12314;SDS011;23886;46.614;14.276;2023-01-23T05:33:30;19.03;;;17.13;;
12314;SDS011;23886;46.614;14.276;2023-01-23T05:35:57;19.80;;;17.80;;
12314;SDS011;23886;46.614;14.276;2023-01-23T05:38:24;18.97;;;16.97;;
12314;SDS011;23886;46.614;14.276;2023-01-23T05:40:52;21.77;;;19.20;;
12314;SDS011;23886;46.614;14.276;2023-01-23T05:43:19;20.60;;;18.27;;
12314;SDS011;23886;46.614;14.276;2023-01-23T05:45:46;19.70;;;17.67;;
12314;SDS011;23886;46.614;14.276;2023-01-23T05:48:13;20.73;;;17.90;;
12314;SDS011;23886;46.614;14.276;2023-01-23T05:50:41;20.27;;;18.07;;
12314;SDS011;23886;46.614;14.276;2023-01-23T05:53:08;19.90;;;17.90;;
12314;SDS011;23886;46.614;14.276;2023-01-23T05:55:36;20.97;;;18.77;;
12314;SDS011;23886;46.614;14.276;2023-01-23T05:58:03;21.83;;;18.73;;
12314;SDS011;23886;46.614;14.276;2023-01-23T06:00:31;20.87;;;18.63;;
12314;SDS011;23886;46.614;14.276;2023-01-23T06:02:58;21.87;;;19.47;;
12314;SDS011;23886;46.614;14.276;2023-01-23T06:05:25;21.00;;;18.80;;
12314;SDS011;23886;46.614;14.276;2023-01-23T06:07:53;22.60;;;19.67;;
12314;SDS011;23886;46.614;14.276;2023-01-23T06:10:20;20.80;;;18.50;;
12314;SDS011;23886;46.614;14.276;2023-01-23T06:12:47;22.07;;;19.67;;
12314;SDS011;23886;46.614;14.276;2023-01-23T06:15:14;23.17;;;20.67;;
12314;SDS011;23886;46.614;14.276;2023-01-23T06:17:42;20.80;;;18.57;;
12314;SDS011;23886;46.614;14.276;2023-01-23T06:20:09;21.13;;;18.87;;
12314;SDS011;23886;46.614;14.276;2023-01-23T06:22:37;21.00;;;18.77;;
12314;SDS011;23886;46.614;14.276;2023-01-23T06:25:06;21.40;;;18.60;;
12314;SDS011;23886;46.614;14.276;2023-01-23T06:27:33;20.70;;;18.60;;
12314;SDS011;23886;46.614;14.276;2023-01-23T06:30:00;20.40;;;18.30;;
12314;SDS011;23886;46.614;14.276;2023-01-23T06:32:27;20.93;;;18.60;;
12314;SDS011;23886;46.614;14.276;2023-01-23T06:34:54;21.13;;;18.23;;
12314;SDS011;23886;46.614;14.276;2023-01-23T06:37:21;18.80;;;16.90;;
12314;SDS011;23886;46.614;14.276;2023-01-23T06:39:48;20.27;;;17.27;;
12314;SDS011;23886;46.614;14.276;2023-01-23T06:42:17;19.77;;;17.50;;
12314;SDS011;23886;46.614;14.276;2023-01-23T06:44:44;21.37;;;18.93;;
12314;SDS011;23886;46.614;14.276;2023-01-23T06:47:11;19.67;;;17.57;;
12314;SDS011;23886;46.614;14.276;2023-01-23T06:49:38;21.40;;;19.13;;
12314;SDS011;23886;46.614;14.276;2023-01-23T06:52:05;21.13;;;18.37;;
12314;SDS011;23886;46.614;14.276;2023-01-23T06:54:32;19.70;;;17.70;;
12314;SDS011;23886;46.614;14.276;2023-01-23T06:56:59;21.37;;;19.13;;
12314;SDS011;23886;46.614;14.276;2023-01-23T06:59:28;19.20;;;17.20;;
12314;SDS011;23886;46.614;14.276;2023-01-23T07:01:55;19.63;;;17.57;;
12314;SDS011;23886;46.614;14.276;2023-01-23T07:04:22;19.23;;;17.20;;
12314;SDS011;23886;46.614;14.276;2023-01-23T07:06:49;19.97;;;17.87;;
12314;SDS011;23886;46.614;14.276;2023-01-23T07:09:15;20.40;;;18.20;;
12314;SDS011;23886;46.614;14.276;2023-01-23T07:11:42;21.70;;;19.40;;
12314;SDS011;23886;46.614;14.276;2023-01-23T07:14:09;19.93;;;17.83;;
12314;SDS011;23886;46.614;14.276;2023-01-23T07:16:38;19.50;;;17.40;;
12314;SDS011;23886;46.614;14.276;2023-01-23T07:19:05;20.07;;;17.90;;
12314;SDS011;23886;46.614;14.276;2023-01-23T07:21:32;19.50;;;17.37;;
12314;SDS011;23886;46.614;14.276;2023-01-23T07:23:59;19.67;;;17.57;;
12314;SDS011;23886;46.614;14.276;2023-01-23T07:26:26;18.10;;;16.20;;
12314;SDS011;23886;46.614;14.276;2023-01-23T07:28:53;19.60;;;17.60;;
12314;SDS011;23886;46.614;14.276;2023-01-23T07:31:20;17.33;;;15.20;;
12314;SDS011;23886;46.614;14.276;2023-01-23T07:33:49;17.73;;;15.87;;
12314;SDS011;23886;46.614;14.276;2023-01-23T07:36:16;17.27;;;15.47;;
12314;SDS011;23886;46.614;14.276;2023-01-23T07:38:43;16.60;;;14.90;;
12314;SDS011;23886;46.614;14.276;2023-01-23T07:41:10;15.10;;;13.50;;
12314;SDS011;23886;46.614;14.276;2023-01-23T07:43:37;13.80;;;12.40;;
12314;SDS011;23886;46.614;14.276;2023-01-23T07:46:04;13.63;;;12.33;;
12314;SDS011;23886;46.614;14.276;2023-01-23T07:48:31;14.47;;;12.60;;
12314;SDS011;23886;46.614;14.276;2023-01-23T07:51:01;13.10;;;11.70;;
12314;SDS011;23886;46.614;14.276;2023-01-23T07:53:29;14.50;;;12.70;;
12314;SDS011;23886;46.614;14.276;2023-01-23T07:55:56;14.30;;;12.80;;
12314;SDS011;23886;46.614;14.276;2023-01-23T07:58:23;12.93;;;11.63;;
12314;SDS011;23886;46.614;14.276;2023-01-23T08:00:50;13.87;;;12.47;;
12314;SDS011;23886;46.614;14.276;2023-01-23T08:03:17;12.97;;;11.67;;
12314;SDS011;23886;46.614;14.276;2023-01-23T08:05:46;12.77;;;11.47;;
12314;SDS011;23886;46.614;14.276;2023-01-23T08:08:15;13.07;;;11.77;;
12314;SDS011;23886;46.614;14.276;2023-01-23T08:10:42;13.07;;;11.77;;
12314;SDS011;23886;46.614;14.276;2023-01-23T08:13:09;13.27;;;11.87;;
12314;SDS011;23886;46.614;14.276;2023-01-23T08:15:36;12.13;;;10.93;;
12314;SDS011;23886;46.614;14.276;2023-01-23T08:18:04;12.57;;;11.27;;
12314;SDS011;23886;46.614;14.276;2023-01-23T08:20:31;12.90;;;11.50;;
12314;SDS011;23886;46.614;14.276;2023-01-23T08:22:58;13.13;;;11.83;;
12314;SDS011;23886;46.614;14.276;2023-01-23T08:25:27;12.93;;;11.63;;
12314;SDS011;23886;46.614;14.276;2023-01-23T08:27:55;19.57;;;17.57;;
12314;SDS011;23886;46.614;14.276;2023-01-23T08:30:22;17.43;;;15.73;;
12314;SDS011;23886;46.614;14.276;2023-01-23T08:32:49;15.63;;;14.10;;
12314;SDS011;23886;46.614;14.276;2023-01-23T08:35:16;13.50;;;12.17;;
12314;SDS011;23886;46.614;14.276;2023-01-23T08:37:43;12.80;;;11.50;;
12314;SDS011;23886;46.614;14.276;2023-01-23T08:40:10;12.03;;;10.83;;
12314;SDS011;23886;46.614;14.276;2023-01-23T08:42:39;10.90;;;9.80;;
12314;SDS011;23886;46.614;14.276;2023-01-23T08:45:06;12.23;;;11.03;;
12314;SDS011;23886;46.614;14.276;2023-01-23T08:47:34;11.83;;;10.63;;
12314;SDS011;23886;46.614;14.276;2023-01-23T08:50:02;11.27;;;10.17;;
12314;SDS011;23886;46.614;14.276;2023-01-23T08:52:29;11.80;;;10.60;;
12314;SDS011;23886;46.614;14.276;2023-01-23T08:54:58;10.30;;;9.30;;
12314;SDS011;23886;46.614;14.276;2023-01-23T08:57:25;9.53;;;8.63;;
12314;SDS011;23886;46.614;14.276;2023-01-23T08:59:54;10.10;;;9.10;;
12314;SDS011;23886;46.614;14.276;2023-01-23T09:02:21;9.40;;;8.50;;
12314;SDS011;23886;46.614;14.276;2023-01-23T09:04:48;8.97;;;8.07;;
12314;SDS011;23886;46.614;14.276;2023-01-23T09:07:15;7.90;;;7.10;;
12314;SDS011;23886;46.614;14.276;2023-01-23T09:09:42;18.00;;;14.50;;
12314;SDS011;23886;46.614;14.276;2023-01-23T09:12:09;15.27;;;13.33;;
12314;SDS011;23886;46.614;14.276;2023-01-23T09:14:36;11.70;;;10.50;;
12314;SDS011;23886;46.614;14.276;2023-01-23T09:17:04;11.87;;;10.57;;
12314;SDS011;23886;46.614;14.276;2023-01-23T09:19:32;10.07;;;9.07;;
12314;SDS011;23886;46.614;14.276;2023-01-23T09:21:59;9.13;;;8.23;;
12314;SDS011;23886;46.614;14.276;2023-01-23T09:24:27;9.27;;;8.37;;
12314;SDS011;23886;46.614;14.276;2023-01-23T09:26:54;8.90;;;8.10;;
12314;SDS011;23886;46.614;14.276;2023-01-23T09:29:21;10.47;;;9.47;;
12314;SDS011;23886;46.614;14.276;2023-01-23T09:31:48;11.63;;;9.53;;
12314;SDS011;23886;46.614;14.276;2023-01-23T09:34:16;12.67;;;11.47;;
12314;SDS011;23886;46.614;14.276;2023-01-23T09:36:43;12.90;;;11.60;;
12314;SDS011;23886;46.614;14.276;2023-01-23T09:39:11;13.10;;;11.80;;
12314;SDS011;23886;46.614;14.276;2023-01-23T09:41:38;13.67;;;12.37;;
12314;SDS011;23886;46.614;14.276;2023-01-23T09:44:06;14.77;;;13.27;;
12314;SDS011;23886;46.614;14.276;2023-01-23T09:46:38;14.33;;;12.93;;
12314;SDS011;23886;46.614;14.276;2023-01-23T09:49:10;15.90;;;14.27;;
12314;SDS011;23886;46.614;14.276;2023-01-23T09:51:45;15.70;;;14.20;;
12314;SDS011;23886;46.614;14.276;2023-01-23T09:54:19;15.77;;;14.17;;
12314;SDS011;23886;46.614;14.276;2023-01-23T09:57:00;17.13;;;15.47;;
12314;SDS011;23886;46.614;14.276;2023-01-23T09:59:32;29.83;;;26.63;;
12314;SDS011;23886;46.614;14.276;2023-01-23T10:02:02;29.90;;;26.90;;
12314;SDS011;23886;46.614;14.276;2023-01-23T10:04:38;22.60;;;20.30;;
12314;SDS011;23886;46.614;14.276;2023-01-23T10:07:13;17.50;;;15.73;;
12314;SDS011;23886;46.614;14.276;2023-01-23T10:10:00;20.33;;;17.80;;
12314;SDS011;23886;46.614;14.276;2023-01-23T10:12:42;17.27;;;15.43;;
12314;SDS011;23886;46.614;14.276;2023-01-23T10:15:19;16.30;;;14.57;;
12314;SDS011;23886;46.614;14.276;2023-01-23T10:17:54;14.03;;;12.67;;
12314;SDS011;23886;46.614;14.276;2023-01-23T10:20:37;12.50;;;10.97;;
12314;SDS011;23886;46.614;14.276;2023-01-23T10:23:16;12.80;;;11.50;;
12314;SDS011;23886;46.614;14.276;2023-01-23T10:25:57;11.27;;;10.17;;
12314;SDS011;23886;46.614;14.276;2023-01-23T10:28:27;13.30;;;11.97;;
12314;SDS011;23886;46.614;14.276;2023-01-23T10:31:00;11.53;;;10.43;;
12314;SDS011;23886;46.614;14.276;2023-01-23T10:33:35;12.13;;;10.83;;
12314;SDS011;23886;46.614;14.276;2023-01-23T10:36:10;11.83;;;10.63;;
12314;SDS011;23886;46.614;14.276;2023-01-23T10:38:47;13.83;;;11.77;;
12314;SDS011;23886;46.614;14.276;2023-01-23T10:41:20;16.47;;;13.90;;
12314;SDS011;23886;46.614;14.276;2023-01-23T10:43:48;16.77;;;13.27;;
12314;SDS011;23886;46.614;14.276;2023-01-23T10:46:17;18.43;;;14.17;;
12314;SDS011;23886;46.614;14.276;2023-01-23T10:48:46;16.87;;;14.30;;
12314;SDS011;23886;46.614;14.276;2023-01-23T10:51:34;15.37;;;13.77;;
12314;SDS011;23886;46.614;14.276;2023-01-23T10:54:16;19.70;;;16.57;;
12314;SDS011;23886;46.614;14.276;2023-01-23T10:56:45;20.07;;;18.07;;
12314;SDS011;23886;46.614;14.276;2023-01-23T10:59:24;19.40;;;17.50;;
12314;SDS011;23886;46.614;14.276;2023-01-23T11:01:58;21.70;;;19.50;;
12314;SDS011;23886;46.614;14.276;2023-01-23T11:04:28;24.87;;;22.30;;
12314;SDS011;23886;46.614;14.276;2023-01-23T11:07:02;25.30;;;22.60;;
12314;SDS011;23886;46.614;14.276;2023-01-23T11:09:32;24.97;;;22.43;;
12314;SDS011;23886;46.614;14.276;2023-01-23T11:12:15;23.20;;;20.90;;
12314;SDS011;23886;46.614;14.276;2023-01-23T11:14:43;20.20;;;18.17;;
12314;SDS011;23886;46.614;14.276;2023-01-23T11:17:13;18.27;;;16.37;;
12314;SDS011;23886;46.614;14.276;2023-01-23T11:19:42;19.73;;;17.73;;
12314;SDS011;23886;46.614;14.276;2023-01-23T11:22:22;18.37;;;16.63;;
12314;SDS011;23886;46.614;14.276;2023-01-23T11:24:55;18.17;;;16.37;;
12314;SDS011;23886;46.614;14.276;2023-01-23T11:27:23;17.17;;;15.47;;
12314;SDS011;23886;46.614;14.276;2023-01-23T11:32:58;17.37;;;15.53;;
12314;SDS011;23886;46.614;14.276;2023-01-23T11:35:38;21.07;;;18.97;;
12314;SDS011;23886;46.614;14.276;2023-01-23T11:38:16;28.57;;;25.50;;
12314;SDS011;23886;46.614;14.276;2023-01-23T11:40:46;32.77;;;26.93;;
12314;SDS011;23886;46.614;14.276;2023-01-23T11:43:13;31.77;;;26.97;;
12314;SDS011;23886;46.614;14.276;2023-01-23T11:45:44;32.10;;;26.23;;
12314;SDS011;23886;46.614;14.276;2023-01-23T11:48:24;28.20;;;24.33;;
12314;SDS011;23886;46.614;14.276;2023-01-23T11:51:02;29.23;;;26.03;;
12314;SDS011;23886;46.614;14.276;2023-01-23T11:53:35;29.23;;;26.13;;
12314;SDS011;23886;46.614;14.276;2023-01-23T11:59:19;24.27;;;21.70;;
12314;SDS011;23886;46.614;14.276;2023-01-23T12:02:04;25.57;;;22.20;;
12314;SDS011;23886;46.614;14.276;2023-01-23T12:04:57;33.73;;;26.07;;
12314;SDS011;23886;46.614;14.276;2023-01-23T12:07:46;31.20;;;23.97;;
12314;SDS011;23886;46.614;14.276;2023-01-23T12:10:22;31.57;;;23.23;;
12314;SDS011;23886;46.614;14.276;2023-01-23T12:13:04;31.67;;;23.90;;
12314;SDS011;23886;46.614;14.276;2023-01-23T12:15:41;20.87;;;18.63;;
12314;SDS011;23886;46.614;14.276;2023-01-23T12:18:16;20.27;;;18.17;;
12314;SDS011;23886;46.614;14.276;2023-01-23T12:20:52;18.00;;;16.23;;
12314;SDS011;23886;46.614;14.276;2023-01-23T12:26:17;20.30;;;18.20;;
12314;SDS011;23886;46.614;14.276;2023-01-23T12:31:58;16.67;;;15.00;;
12314;SDS011;23886;46.614;14.276;2023-01-23T12:34:49;18.80;;;16.83;;
12314;SDS011;23886;46.614;14.276;2023-01-23T12:37:36;17.80;;;16.10;;
12314;SDS011;23886;46.614;14.276;2023-01-23T12:40:16;17.30;;;15.60;;
12314;SDS011;23886;46.614;14.276;2023-01-23T12:42:50;17.53;;;15.80;;
12314;SDS011;23886;46.614;14.276;2023-01-23T12:45:24;17.97;;;16.07;;
12314;SDS011;23886;46.614;14.276;2023-01-23T12:47:56;18.20;;;16.30;;
12314;SDS011;23886;46.614;14.276;2023-01-23T12:50:31;16.13;;;14.57;;
12314;SDS011;23886;46.614;14.276;2023-01-23T12:53:07;18.27;;;16.47;;
12314;SDS011;23886;46.614;14.276;2023-01-23T12:55:37;17.37;;;15.77;;
12314;SDS011;23886;46.614;14.276;2023-01-23T12:58:09;16.17;;;14.47;;
12314;SDS011;23886;46.614;14.276;2023-01-23T13:00:48;14.77;;;13.37;;
12314;SDS011;23886;46.614;14.276;2023-01-23T13:03:37;15.30;;;13.80;;
12314;SDS011;23886;46.614;14.276;2023-01-23T13:09:19;13.63;;;12.33;;
12314;SDS011;23886;46.614;14.276;2023-01-23T13:11:56;14.00;;;12.70;;
12314;SDS011;23886;46.614;14.276;2023-01-23T13:14:36;14.97;;;13.47;;
12314;SDS011;23886;46.614;14.276;2023-01-23T13:17:30;14.00;;;12.70;;
12314;SDS011;23886;46.614;14.276;2023-01-23T13:23:26;14.70;;;13.20;;
12314;SDS011;23886;46.614;14.276;2023-01-23T13:26:10;14.80;;;13.37;;
12314;SDS011;23886;46.614;14.276;2023-01-23T13:28:59;14.07;;;12.67;;
12314;SDS011;23886;46.614;14.276;2023-01-23T13:31:41;15.17;;;13.67;;
12314;SDS011;23886;46.614;14.276;2023-01-23T13:40:19;15.20;;;13.60;;
12314;SDS011;23886;46.614;14.276;2023-01-23T13:42:49;15.27;;;13.67;;
12314;SDS011;23886;46.614;14.276;2023-01-23T13:45:27;14.67;;;13.27;;
12314;SDS011;23886;46.614;14.276;2023-01-23T13:48:00;14.83;;;13.40;;
12314;SDS011;23886;46.614;14.276;2023-01-23T13:51:13;14.30;;;12.90;;
12314;SDS011;23886;46.614;14.276;2023-01-23T13:53:44;13.37;;;12.17;;
12314;SDS011;23886;46.614;14.276;2023-01-23T13:56:30;14.37;;;12.97;;
12314;SDS011;23886;46.614;14.276;2023-01-23T13:59:07;13.77;;;12.47;;
12314;SDS011;23886;46.614;14.276;2023-01-23T14:01:42;13.07;;;11.87;;
12314;SDS011;23886;46.614;14.276;2023-01-23T14:04:34;12.57;;;11.27;;
12314;SDS011;23886;46.614;14.276;2023-01-23T14:07:25;15.07;;;13.57;;
12314;SDS011;23886;46.614;14.276;2023-01-23T14:13:05;16.63;;;14.87;;
12314;SDS011;23886;46.614;14.276;2023-01-23T14:15:34;15.27;;;13.67;;
12314;SDS011;23886;46.614;14.276;2023-01-23T14:18:21;16.63;;;14.77;;
12314;SDS011;23886;46.614;14.276;2023-01-23T14:20:58;16.63;;;15.03;;
12314;SDS011;23886;46.614;14.276;2023-01-23T14:23:31;15.60;;;13.97;;
12314;SDS011;23886;46.614;14.276;2023-01-23T14:26:01;16.57;;;15.00;;
12314;SDS011;23886;46.614;14.276;2023-01-23T14:28:30;20.43;;;18.27;;
12314;SDS011;23886;46.614;14.276;2023-01-23T14:30:58;19.20;;;17.23;;
12314;SDS011;23886;46.614;14.276;2023-01-23T14:33:27;20.03;;;17.93;;
12314;SDS011;23886;46.614;14.276;2023-01-23T14:36:04;20.03;;;18.03;;
12314;SDS011;23886;46.614;14.276;2023-01-23T14:38:33;20.57;;;18.33;;
12314;SDS011;23886;46.614;14.276;2023-01-23T14:41:04;20.23;;;18.13;;
12314;SDS011;23886;46.614;14.276;2023-01-23T14:43:32;19.87;;;17.87;;
12314;SDS011;23886;46.614;14.276;2023-01-23T14:46:01;19.83;;;17.83;;
12314;SDS011;23886;46.614;14.276;2023-01-23T14:48:31;18.43;;;16.60;;
12314;SDS011;23886;46.614;14.276;2023-01-23T14:51:06;21.43;;;19.33;;
12314;SDS011;23886;46.614;14.276;2023-01-23T14:53:41;21.20;;;19.10;;
12314;SDS011;23886;46.614;14.276;2023-01-23T14:56:08;22.47;;;20.17;;
12314;SDS011;23886;46.614;14.276;2023-01-23T14:58:36;20.87;;;18.77;;
12314;SDS011;23886;46.614;14.276;2023-01-23T15:01:05;20.90;;;18.80;;